Terminal Aerodrome Forecast
Issued by NWS San Angelo, TX

Home | Current Version | Previous Version | Text Only | Print | Product List | Glossary On
Versions: 1 2 3 4 5 6 7 8 9 10 11 12 13 14 15 16 17 18 19 20 21 22 23 24 25 26 27 28 29 30
000
FTUS44 KSJT 290100 AAC
TAFABI
TAF AMD
KABI 290102Z 2901/2924 32012KT 6SM BR VCTS BKN070CB
     FM290200 15016G23KT P6SM -TSRA BKN045CB
     FM290500 16010G19KT P6SM BKN250
     FM291800 21012KT P6SM BKN050
     FM292200 16010KT P6SM BKN250=

USA.gov is the U.S. government's official web portal to all federal, state and local government web resources and services.